Terminal Aerodrome Forecast
Issued by NWS Knoxville/Tri Cities, TN

Home | Current Version | Previous Version | Text Only | Print | Product List | Glossary On
Versions: 1 2 3 4 5 6 7 8 9 10 11 12 13 14 15 16
000
FTUS44 KMRX 262320
TAFTYS
TAF
KTYS 262320Z 2700/2724 23007KT P6SM SCT250
     FM270300 23007KT P6SM BKN150
     FM271200 23008KT P6SM SCT050
     FM271800 24010KT P6SM VCTS OVC050CB=

USA.gov is the U.S. government's official web portal to all federal, state and local government web resources and services.